LiveATC.Net - Listen to live air traffic control over the Internet! Contact LiveATC.net for advertising information


ICAO: SBNF  IATA: NVT   Airport: Navegantes-Ministro Victor Konder International Airport
City: Navegantes
Country: Brazil   Continent: South America
SBNF METAR Weather: SBNF 010300Z 29002KT 9000 FEW015 19/18 Q1018
SBNF Flight Activity (FlightAware)
SBNF Twr/App
Feed Status: DOWN
Last heard on: 2014-07-13 23:14:03 (18 days 6 hours 35 minutes ago)
SBNF Twr/App Audio Archives
FacilityFrequency
Navegantes Approach119.500
Navegantes Tower118.200


NOTICE

Unauthorized use prohibited. See LiveATC.net Terms of Service


Find LiveATC Audio Streams


Airport/ARTCC Code

Frequency
(e.g., 124.400, 128.75)
Site-wide search

Browse LiveATC Feeds
LiveATC Coverage Map
Top 50 LiveATC Feeds
Bad Weather Areas

LiveATC FAQ
Offer a LiveATC Feed
Contact LiveATC.net
Press Inquiries

LiveATC on iPhone
LiveATC on Android

LiveATC Mobile
(Mobile browser)

ATC Audio Archives
Interesting Recordings

LiveATC Forums


Home Page
About LiveATC.net
Make a Donation
LiveATC Bookstore

Terms of Use
Privacy Policy

ATC/Radar Sites
U.S. ARTCC Freqs
Canadian Air Freqs

AIRMETs/SIGMETs

FAA Airport Status
Nat'l Airspace Status
Arrival Demand Charts


Server Software By:
Icecast.org
Liquidsoap

Please make a donation to help us keep growing!